Time;durP1;ratioP1;P1;durP2;ratioP2;P2;SDS_P1;SDS_P2;PMS_P1;PMS_P2;Temp;Humidity;BMP_temperature;BMP_pressure;BME280_temperature;BME280_humidity;BME280_pressure;Samples;Min_cycle;Max_cycle;Signal;HPM_P1;HPM_P2
2023/01/03 00:03:06;;;;;;;0.55;0.50;;;8.60;99.90;;;;;;10209359;23;20020;-78
2023/01/03 00:07:07;;;;;;;0.50;0.40;;;8.20;99.90;;;;;;10208692;23;20448;-77
2023/01/03 00:11:16;;;;;;;1.85;0.60;;;8.00;99.90;;;;;;10209151;23;20072;-77
2023/01/03 00:15:17;;;;;;;1.90;0.50;;;8.00;99.90;;;;;;10207922;23;20001;-78
2023/01/03 00:19:18;;;;;;;1.63;0.60;;;8.10;99.90;;;;;;10234429;23;20032;-78
2023/01/03 00:23:18;;;;;;;0.43;0.30;;;8.20;99.90;;;;;;10207865;23;20016;-79
2023/01/03 00:27:19;;;;;;;1.95;0.60;;;8.40;99.90;;;;;;10209201;23;20092;-79
2023/01/03 00:31:19;;;;;;;1.95;0.73;;;8.30;99.90;;;;;;10209062;23;19997;-78
2023/01/03 00:35:20;;;;;;;0.50;0.50;;;8.30;99.90;;;;;;10233344;23;20005;-77
2023/01/03 00:39:21;;;;;;;0.60;0.40;;;8.30;99.90;;;;;;10208802;23;20482;-78
2023/01/03 00:43:27;;;;;;;1.38;0.70;;;8.30;99.90;;;;;;10208165;23;20013;-78
2023/01/03 00:47:28;;;;;;;1.20;0.60;;;8.00;99.90;;;;;;10207790;23;20020;-78
2023/01/03 00:51:31;;;;;;;1.10;0.50;;;7.70;99.90;;;;;;10236084;23;19997;-78
2023/01/03 00:55:34;;;;;;;0.70;0.50;;;7.90;99.90;;;;;;10214100;23;20084;-79
2023/01/03 00:59:34;;;;;;;1.55;0.57;;;7.80;99.90;;;;;;10213826;23;20009;-79
2023/01/03 01:03:37;;;;;;;0.98;0.70;;;7.60;99.90;;;;;;10212674;23;20025;-79
2023/01/03 01:07:38;;;;;;;0.73;0.60;;;7.40;99.90;;;;;;10235891;23;20009;-79
2023/01/03 01:11:39;;;;;;;1.75;0.50;;;7.30;99.90;;;;;;10211430;23;20029;-78
2023/01/03 01:15:39;;;;;;;0.73;0.50;;;7.20;99.90;;;;;;10211296;23;20060;-79
2023/01/03 01:19:41;;;;;;;0.80;0.38;;;7.30;99.90;;;;;;10211750;23;20013;-78
2023/01/03 01:23:42;;;;;;;1.23;0.70;;;7.30;99.90;;;;;;10235019;23;20032;-77
2023/01/03 01:27:43;;;;;;;1.63;0.63;;;7.50;99.90;;;;;;10234822;23;20009;-78
2023/01/03 01:31:44;;;;;;;0.65;0.50;;;7.50;99.90;;;;;;10209930;23;20028;-78
2023/01/03 01:35:45;;;;;;;0.95;0.65;;;8.00;99.90;;;;;;10236323;23;20608;-77
2023/01/03 01:39:45;;;;;;;0.70;0.60;;;7.80;99.90;;;;;;10208827;23;20032;-79
2023/01/03 01:48:16;;;;;;;0.70;0.50;;;7.90;99.90;;;;;;10234213;23;20076;-78
2023/01/03 01:52:18;;;;;;;0.75;0.40;;;7.60;99.90;;;;;;10234292;23;20068;-78
2023/01/03 01:56:24;;;;;;;0.50;0.40;;;7.50;99.90;;;;;;10210820;23;20001;-77
2023/01/03 02:00:25;;;;;;;0.90;0.60;;;7.30;99.90;;;;;;10210940;23;20013;-78
2023/01/03 02:04:30;;;;;;;1.20;0.80;;;7.20;99.90;;;;;;10209764;23;20021;-78
2023/01/03 02:08:31;;;;;;;0.68;0.50;;;7.00;99.90;;;;;;10209819;23;20013;-78
2023/01/03 02:17:34;;;;;;;1.15;0.70;;;6.90;99.90;;;;;;10235761;23;20052;-78
2023/01/03 02:22:08;;;;;;;0.73;0.70;;;6.90;99.90;;;;;;10235890;23;20009;-78
2023/01/03 02:26:33;;;;;;;1.63;1.00;;;7.00;99.90;;;;;;10233504;23;20012;-78
2023/01/03 02:30:48;;;;;;;0.77;0.60;;;6.90;99.90;;;;;;10234028;23;20096;-78
2023/01/03 02:35:19;;;;;;;0.95;0.70;;;6.90;99.90;;;;;;10209171;23;20009;-79
2023/01/03 02:39:29;;;;;;;0.73;0.73;;;6.90;99.90;;;;;;10188159;23;20459;-78
2023/01/03 02:43:39;;;;;;;1.33;0.90;;;6.80;99.90;;;;;;10209669;23;20071;-78
2023/01/03 02:47:51;;;;;;;0.70;0.60;;;6.80;99.90;;;;;;10239230;23;20089;-77
2023/01/03 02:51:59;;;;;;;1.25;0.70;;;6.90;99.90;;;;;;10211980;23;20001;-78
2023/01/03 02:56:06;;;;;;;0.70;0.60;;;6.90;99.90;;;;;;10212280;23;20008;-78
2023/01/03 03:00:11;;;;;;;0.57;0.55;;;7.00;99.90;;;;;;10212653;23;20009;-78
2023/01/03 03:04:13;;;;;;;0.60;0.47;;;7.10;99.90;;;;;;10235917;23;20017;-79
2023/01/03 03:08:13;;;;;;;0.50;0.50;;;7.00;99.90;;;;;;10210747;23;20100;-79
2023/01/03 03:16:47;;;;;;;1.10;0.65;;;6.90;99.90;;;;;;10237583;23;20016;-77
2023/01/03 03:25:20;;;;;;;1.95;1.05;;;7.00;99.90;;;;;;10213554;23;20088;-77
2023/01/03 03:29:21;;;;;;;0.88;0.60;;;7.00;99.90;;;;;;10210974;23;20021;-77
2023/01/03 03:33:23;;;;;;;1.05;0.68;;;7.00;99.90;;;;;;10238077;23;20009;-78
2023/01/03 03:37:26;;;;;;;1.15;0.70;;;6.80;99.90;;;;;;10235115;23;20034;-78
2023/01/03 03:45:59;;;;;;;1.80;0.85;;;6.70;99.90;;;;;;10236803;23;20020;-78
2023/01/03 03:50:06;;;;;;;1.52;1.05;;;6.70;99.90;;;;;;10235019;23;20008;-78
2023/01/03 03:54:12;;;;;;;2.40;1.40;;;6.60;99.90;;;;;;10234874;23;20005;-79
2023/01/03 03:58:24;;;;;;;2.17;0.98;;;6.70;99.90;;;;;;10237172;23;20005;-78
2023/01/03 04:02:26;;;;;;;2.13;1.58;;;6.60;99.90;;;;;;10233983;23;20021;-78
2023/01/03 04:06:33;;;;;;;1.08;0.80;;;6.60;99.90;;;;;;10233547;23;20079;-77
2023/01/03 04:10:34;;;;;;;1.20;0.65;;;6.70;99.90;;;;;;10235065;23;20024;-78
2023/01/03 04:14:34;;;;;;;0.77;0.70;;;6.70;99.90;;;;;;10234924;23;20004;-78
2023/01/03 04:18:35;;;;;;;1.90;0.90;;;6.80;99.90;;;;;;10234963;23;20511;-79
2023/01/03 04:22:36;;;;;;;0.77;0.65;;;6.80;99.90;;;;;;10207790;23;20016;-78
2023/01/03 04:26:36;;;;;;;1.10;0.90;;;6.80;99.90;;;;;;10207754;23;20008;-78
2023/01/03 04:30:37;;;;;;;1.00;0.80;;;6.70;99.90;;;;;;10208105;23;20009;-78
2023/01/03 04:34:37;;;;;;;1.38;0.90;;;6.60;99.90;;;;;;10234076;23;20021;-78
2023/01/03 04:38:38;;;;;;;1.13;0.82;;;6.60;99.90;;;;;;10210721;23;20012;-79
2023/01/03 04:46:57;;;;;;;1.70;1.00;;;6.60;99.90;;;;;;10237996;23;20379;-78
2023/01/03 04:50:59;;;;;;;1.10;0.90;;;6.70;99.90;;;;;;10236027;23;20001;-78
2023/01/03 04:54:59;;;;;;;1.35;1.02;;;6.60;99.90;;;;;;10212399;23;20012;-79
2023/01/03 04:59:00;;;;;;;2.28;1.00;;;6.60;99.90;;;;;;10238676;23;20016;-78
2023/01/03 05:03:01;;;;;;;2.92;1.30;;;6.50;99.90;;;;;;10238757;23;20017;-78
2023/01/03 05:07:01;;;;;;;0.75;0.60;;;6.50;99.90;;;;;;10212170;23;20095;-79
2023/01/03 05:11:02;;;;;;;1.05;0.85;;;6.40;99.90;;;;;;10235967;23;20001;-78
2023/01/03 05:15:03;;;;;;;1.20;1.00;;;6.50;99.90;;;;;;10208435;23;20013;-78
2023/01/03 05:19:03;;;;;;;0.95;0.82;;;6.50;99.90;;;;;;10233320;23;20009;-78
2023/01/03 05:27:23;;;;;;;1.38;1.00;;;6.30;99.90;;;;;;10235220;23;20355;-80
2023/01/03 05:31:24;;;;;;;1.30;0.98;;;6.30;99.90;;;;;;10238491;23;20005;-79
2023/01/03 05:35:24;;;;;;;1.65;0.90;;;6.40;99.90;;;;;;10211011;23;20439;-79
2023/01/03 05:39:25;;;;;;;1.27;0.98;;;6.50;99.90;;;;;;10237877;23;20005;-79
2023/01/03 05:43:25;;;;;;;1.52;1.00;;;6.40;99.90;;;;;;10238298;23;20005;-80
2023/01/03 05:47:26;;;;;;;1.13;1.00;;;6.40;99.90;;;;;;10236868;23;20013;-80
2023/01/03 05:51:26;;;;;;;1.40;1.13;;;6.60;99.90;;;;;;10212339;23;20565;-77
2023/01/03 05:55:27;;;;;;;1.52;1.13;;;6.60;99.90;;;;;;10210950;23;20009;-78
2023/01/03 05:59:27;;;;;;;3.17;1.88;;;6.40;99.90;;;;;;10236977;23;20060;-79
2023/01/03 06:03:28;;;;;;;1.25;1.00;;;6.30;99.90;;;;;;10208838;23;20012;-79
2023/01/03 06:07:30;;;;;;;1.25;1.08;;;6.30;99.90;;;;;;10236047;23;20291;-79
2023/01/03 06:11:30;;;;;;;3.22;2.28;;;6.40;99.90;;;;;;10236076;23;20407;-79
2023/01/03 06:15:31;;;;;;;3.42;2.28;;;6.30;99.90;;;;;;10209553;23;20009;-80
2023/01/03 06:19:31;;;;;;;2.88;2.20;;;6.30;99.90;;;;;;10235734;23;20012;-78
2023/01/03 06:23:32;;;;;;;1.90;1.55;;;6.30;99.90;;;;;;10209064;23;20420;-79
2023/01/03 06:27:32;;;;;;;2.35;1.80;;;6.30;99.90;;;;;;10209022;23;20009;-79
2023/01/03 06:31:33;;;;;;;3.78;2.47;;;6.20;99.90;;;;;;10209474;23;20036;-80
2023/01/03 06:35:33;;;;;;;5.30;3.35;;;6.20;99.90;;;;;;10213730;23;20012;-80
2023/01/03 06:39:34;;;;;;;4.30;2.92;;;6.20;99.90;;;;;;10213351;23;20068;-79
2023/01/03 06:43:35;;;;;;;3.90;2.65;;;6.20;99.90;;;;;;10238891;23;20077;-81
2023/01/03 06:56:15;;;;;;;4.60;2.53;;;6.20;99.90;;;;;;10238988;23;20248;-80
2023/01/03 07:00:15;;;;;;;3.72;2.65;;;6.20;99.90;;;;;;10240197;23;20001;-80
2023/01/03 07:04:17;;;;;;;4.30;2.25;;;6.20;99.90;;;;;;10212873;23;20017;-80
2023/01/03 07:08:17;;;;;;;3.22;2.33;;;6.20;99.90;;;;;;10237447;23;20016;-80
2023/01/03 07:16:44;;;;;;;3.08;1.60;;;6.30;99.90;;;;;;10236827;23;20019;-80
2023/01/03 07:20:45;;;;;;;1.70;1.20;;;6.40;99.90;;;;;;10211425;23;20432;-79
2023/01/03 07:24:45;;;;;;;3.40;1.40;;;6.40;99.90;;;;;;10236722;23;20001;-81
2023/01/03 07:28:46;;;;;;;1.58;1.13;;;6.30;99.90;;;;;;10211198;23;20009;-80
2023/01/03 07:32:47;;;;;;;2.00;1.10;;;6.40;99.90;;;;;;10237132;23;20025;-80
2023/01/03 07:36:47;;;;;;;1.15;1.00;;;6.30;99.90;;;;;;10210028;23;20012;-80
2023/01/03 07:40:48;;;;;;;1.30;1.00;;;6.30;99.90;;;;;;10236435;23;20005;-80
2023/01/03 07:44:48;;;;;;;1.98;1.38;;;6.20;99.90;;;;;;10209523;23;20382;-80
2023/01/03 07:48:52;;;;;;;1.50;1.10;;;6.20;99.90;;;;;;10210366;23;20005;-80
2023/01/03 07:52:52;;;;;;;1.88;1.27;;;6.30;99.90;;;;;;10210595;23;20005;-80
2023/01/03 07:56:53;;;;;;;1.90;1.20;;;6.40;99.90;;;;;;10210898;23;20100;-81
2023/01/03 08:00:53;;;;;;;2.42;1.48;;;6.40;99.90;;;;;;10209769;23;20012;-80
2023/01/03 08:04:54;;;;;;;1.75;1.52;;;6.30;99.90;;;;;;10235525;23;20020;-81
2023/01/03 08:13:27;;;;;;;9.80;5.40;;;6.60;99.90;;;;;;10202670;23;20036;-80
2023/01/03 08:17:28;;;;;;;10.25;6.47;;;6.60;99.90;;;;;;10234679;23;20005;-80
2023/01/03 08:21:28;;;;;;;9.30;7.13;;;6.70;99.90;;;;;;10208977;23;20009;-80
2023/01/03 08:25:29;;;;;;;7.38;5.65;;;6.70;99.90;;;;;;10234947;23;20458;-81
2023/01/03 08:29:30;;;;;;;43.08;28.92;;;6.60;99.90;;;;;;10238654;23;20012;-80
2023/01/03 08:33:38;;;;;;;6.70;5.07;;;6.60;99.90;;;;;;10240222;23;20009;-80
2023/01/03 08:37:45;;;;;;;5.68;4.65;;;6.60;99.90;;;;;;10212751;23;20017;-79
2023/01/03 08:41:53;;;;;;;8.43;5.68;;;6.70;99.90;;;;;;10213295;23;20009;-79
2023/01/03 08:45:54;;;;;;;6.32;4.00;;;6.70;99.90;;;;;;10238365;23;20005;-82
2023/01/03 08:49:55;;;;;;;10.85;5.82;;;6.80;99.90;;;;;;10214621;23;20012;-82
2023/01/03 08:53:56;;;;;;;7.47;4.75;;;7.00;99.90;;;;;;10214278;23;20005;-80
2023/01/03 08:57:58;;;;;;;6.72;4.60;;;7.00;99.90;;;;;;10213080;23;20017;-81
2023/01/03 09:02:00;;;;;;;6.65;4.13;;;7.00;99.90;;;;;;10213407;23;20012;-81
2023/01/03 09:06:02;;;;;;;8.45;4.20;;;7.00;99.90;;;;;;10211605;23;20459;-80
2023/01/03 09:10:02;;;;;;;5.63;3.92;;;7.00;99.90;;;;;;10239158;23;20540;-80
2023/01/03 09:14:03;;;;;;;6.72;4.85;;;7.00;99.90;;;;;;10237096;23;20005;-80
2023/01/03 09:18:03;;;;;;;5.47;3.45;;;7.30;99.90;;;;;;10235366;23;20009;-80
2023/01/03 09:22:04;;;;;;;3.95;2.50;;;8.10;99.90;;;;;;10211105;23;20019;-80
2023/01/03 09:26:05;;;;;;;6.03;2.15;;;8.10;99.90;;;;;;10211692;23;20440;-79
2023/01/03 09:30:06;;;;;;;4.20;2.63;;;8.20;99.90;;;;;;10237061;23;20072;-80
2023/01/03 09:34:07;;;;;;;3.40;2.10;;;8.30;99.90;;;;;;10210534;23;20008;-80
2023/01/03 09:38:07;;;;;;;3.22;1.98;;;8.30;99.90;;;;;;10211138;23;20009;-79
2023/01/03 09:46:36;;;;;;;1.98;1.30;;;8.80;99.90;;;;;;10236733;23;20383;-80
2023/01/03 09:50:37;;;;;;;4.13;1.52;;;8.70;99.90;;;;;;10210131;23;20013;-81
2023/01/03 10:04:11;;;;;;;3.20;2.00;;;8.90;99.90;;;;;;10234866;23;20084;-81
2023/01/03 10:08:46;;;;;;;2.25;1.88;;;8.80;99.90;;;;;;10230941;23;20009;-80
2023/01/03 10:13:31;;;;;;;3.17;1.80;;;8.70;99.90;;;;;;10142379;23;20531;-81
2023/01/03 10:17:44;;;;;;;2.00;1.60;;;8.70;99.90;;;;;;10209130;23;20009;-80
2023/01/03 10:22:03;;;;;;;2.70;1.90;;;8.70;99.90;;;;;;10211491;23;20009;-80
2023/01/03 10:26:12;;;;;;;3.83;2.65;;;9.10;99.90;;;;;;10236189;23;20005;-80
2023/01/03 10:30:22;;;;;;;3.00;1.90;;;9.20;99.90;;;;;;10211357;23;20032;-81
2023/01/03 10:34:23;;;;;;;1.75;1.50;;;9.50;99.90;;;;;;10211608;23;20443;-80
2023/01/03 10:38:24;;;;;;;2.08;1.38;;;9.70;99.90;;;;;;10212886;23;20023;-80
2023/01/03 10:42:29;;;;;;;2.38;1.48;;;9.60;99.90;;;;;;10212344;23;20440;-80
2023/01/03 10:46:30;;;;;;;1.85;1.60;;;9.40;99.90;;;;;;10211036;23;20451;-81
2023/01/03 10:50:37;;;;;;;3.08;1.88;;;9.50;99.90;;;;;;10239582;23;20052;-81
2023/01/03 10:54:55;;;;;;;2.42;1.73;;;9.50;99.90;;;;;;10212469;23;20017;-80
2023/01/03 10:59:14;;;;;;;3.58;1.60;;;9.60;99.90;;;;;;10213704;23;20467;-81
2023/01/03 11:03:21;;;;;;;2.90;2.00;;;9.70;99.90;;;;;;10212863;23;20069;-81
2023/01/03 11:07:22;;;;;;;1.95;1.42;;;9.80;99.90;;;;;;10212213;23;20487;-81
2023/01/03 11:11:39;;;;;;;2.85;1.90;;;10.00;99.90;;;;;;10237703;23;20534;-81
2023/01/03 11:15:41;;;;;;;3.58;1.90;;;10.10;99.90;;;;;;10239206;23;20068;-81
2023/01/03 11:19:42;;;;;;;2.72;2.05;;;10.30;99.90;;;;;;10211603;23;20364;-82
2023/01/03 11:23:42;;;;;;;1.48;1.30;;;10.60;99.90;;;;;;10211224;23;20005;-80
2023/01/03 11:28:13;;;;;;;2.05;1.63;;;10.60;99.90;;;;;;10211621;23;20324;-80
2023/01/03 11:32:46;;;;;;;2.00;1.60;;;10.80;99.90;;;;;;10238027;23;20048;-81
2023/01/03 11:37:14;;;;;;;3.88;1.95;;;10.70;99.90;;;;;;10213476;23;20016;-81
2023/01/03 11:41:23;;;;;;;2.00;1.38;;;10.50;99.90;;;;;;10238246;23;20344;-81
2023/01/03 11:45:48;;;;;;;2.92;1.80;;;10.60;99.90;;;;;;10212736;23;20371;-82
2023/01/03 11:50:00;;;;;;;2.83;2.05;;;10.60;99.90;;;;;;10212658;23;20443;-82
2023/01/03 11:54:29;;;;;;;3.20;2.15;;;10.40;99.90;;;;;;10238981;23;20000;-81
2023/01/03 11:58:40;;;;;;;4.07;2.03;;;10.60;99.90;;;;;;10213009;23;20016;-79
2023/01/03 12:03:01;;;;;;;2.20;1.77;;;10.50;99.90;;;;;;10212382;23;20013;-81
2023/01/03 12:07:18;;;;;;;2.83;1.95;;;10.40;99.90;;;;;;10212083;23;20012;-82
2023/01/03 12:11:33;;;;;;;3.50;2.17;;;10.30;99.90;;;;;;10236705;23;20007;-82
2023/01/03 12:15:50;;;;;;;2.45;1.80;;;10.20;99.90;;;;;;10219825;23;20006;-82
2023/01/03 12:20:00;;;;;;;2.80;2.20;;;10.30;99.90;;;;;;10215630;23;20008;-82
2023/01/03 12:24:22;;;;;;;3.45;1.85;;;10.20;99.90;;;;;;10246662;23;20028;-81
2023/01/03 12:28:28;;;;;;;3.17;1.85;;;10.00;99.90;;;;;;10220842;23;20103;-82
2023/01/03 12:32:50;;;;;;;2.50;2.08;;;9.80;99.90;;;;;;10220222;23;20012;-81
2023/01/03 12:37:14;;;;;;;3.88;2.35;;;10.20;99.90;;;;;;10247953;23;19997;-80
2023/01/03 12:42:03;;;;;;;2.20;1.95;;;10.20;99.90;;;;;;10243844;23;20448;-81
2023/01/03 12:46:06;;;;;;;2.50;1.75;;;10.50;99.90;;;;;;10258625;23;20076;-81
2023/01/03 12:50:21;;;;;;;6.28;1.92;;;10.50;99.90;;;;;;10220257;23;20028;-82
2023/01/03 12:54:41;;;;;;;1.60;1.48;;;10.70;99.90;;;;;;10217581;23;20029;-80
2023/01/03 12:58:56;;;;;;;1.92;1.60;;;10.60;99.90;;;;;;10273931;22;20027;-82
2023/01/03 13:02:57;;;;;;;2.13;1.48;;;10.80;99.90;;;;;;10330029;23;20354;-81
2023/01/03 13:07:21;;;;;;;1.67;1.35;;;11.00;99.90;;;;;;10328711;23;20024;-82
2023/01/03 13:11:26;;;;;;;2.38;2.00;;;11.00;99.90;;;;;;10281435;23;20347;-82
2023/01/03 13:15:35;;;;;;;2.03;1.27;;;10.80;99.90;;;;;;10282966;23;20016;-81
2023/01/03 13:19:36;;;;;;;1.30;0.93;;;10.50;99.90;;;;;;10281026;23;20435;-80
2023/01/03 13:23:56;;;;;;;1.20;1.10;;;10.40;99.90;;;;;;10280772;23;20040;-82
2023/01/03 13:28:05;;;;;;;;;;;10.50;99.90;;;;;;10281683;23;20020;-80
2023/01/03 13:32:45;;;;;;;1.60;1.20;;;10.30;99.90;;;;;;10279213;23;19900;-81
2023/01/03 13:37:04;;;;;;;1.52;1.27;;;9.80;99.90;;;;;;10280532;23;20139;-82
2023/01/03 13:41:26;;;;;;;1.83;1.33;;;9.60;99.90;;;;;;10280863;23;20013;-80
2023/01/03 13:45:29;;;;;;;1.77;1.35;;;9.60;99.90;;;;;;10280477;23;20091;-81
2023/01/03 13:49:30;;;;;;;2.03;1.60;;;9.40;99.90;;;;;;10282708;23;20004;-80
2023/01/03 13:53:36;;;;;;;2.00;1.20;;;9.30;99.90;;;;;;10284088;23;20125;-82
2023/01/03 13:57:51;;;;;;;1.27;1.17;;;9.40;99.90;;;;;;10284220;23;20060;-82
2023/01/03 14:01:59;;;;;;;1.90;1.35;;;9.30;99.90;;;;;;10284641;23;20023;-81
2023/01/03 14:06:25;;;;;;;2.50;1.50;;;9.10;99.90;;;;;;10284851;23;20043;-82
2023/01/03 14:10:45;;;;;;;1.85;1.40;;;8.60;99.90;;;;;;10284813;23;20000;-82
2023/01/03 14:14:54;;;;;;;2.20;1.60;;;8.30;99.90;;;;;;10285723;23;20519;-80
2023/01/03 14:19:05;;;;;;;1.90;1.25;;;8.20;99.90;;;;;;10283870;23;20016;-82
2023/01/03 14:23:07;;;;;;;1.70;1.45;;;8.20;99.90;;;;;;10283282;23;20059;-81
2023/01/03 14:27:15;;;;;;;1.70;1.30;;;8.00;99.90;;;;;;10285754;23;20079;-81
2023/01/03 14:31:20;;;;;;;2.58;1.60;;;7.70;99.90;;;;;;10285089;23;20043;-81
2023/01/03 14:35:38;;;;;;;2.00;1.55;;;7.50;99.90;;;;;;10286134;23;19997;-81
2023/01/03 14:39:39;;;;;;;3.63;1.52;;;7.20;99.90;;;;;;10284702;23;20004;-80
2023/01/03 14:43:39;;;;;;;2.20;1.80;;;6.90;99.90;;;;;;10284406;23;20505;-81
2023/01/03 14:47:41;;;;;;;2.30;1.80;;;6.80;99.90;;;;;;10283355;23;20485;-81
2023/01/03 14:51:42;;;;;;;7.72;4.88;;;6.70;99.90;;;;;;10283279;23;20005;-81
2023/01/03 14:55:50;;;;;;;2.97;2.00;;;6.70;99.90;;;;;;10285045;23;20009;-82
2023/01/03 14:59:52;;;;;;;2.55;1.90;;;6.70;99.90;;;;;;10283446;23;20075;-80
2023/01/03 15:03:54;;;;;;;3.15;1.90;;;6.70;99.90;;;;;;10282333;23;20043;-81
2023/01/03 15:08:07;;;;;;;2.50;1.80;;;6.70;99.90;;;;;;10282657;23;20009;-81
2023/01/03 15:12:12;;;;;;;2.25;1.80;;;6.60;99.90;;;;;;10284603;23;20009;-81
2023/01/03 15:16:38;;;;;;;2.08;1.58;;;6.40;99.90;;;;;;10282766;23;20030;-81
2023/01/03 15:20:44;;;;;;;3.47;2.60;;;6.20;99.90;;;;;;10283015;23;20019;-81
2023/01/03 15:24:46;;;;;;;18.92;9.35;;;6.00;99.90;;;;;;10283731;23;20386;-80
2023/01/03 15:29:03;;;;;;;9.13;5.30;;;5.80;99.90;;;;;;10285109;23;20031;-79
2023/01/03 15:33:32;;;;;;;4.25;2.80;;;5.60;99.90;;;;;;10283701;23;20434;-82
2023/01/03 15:37:34;;;;;;;5.55;3.58;;;5.30;99.90;;;;;;10265846;23;20008;-81
2023/01/03 15:46:14;;;;;;;7.28;3.60;;;5.30;99.90;;;;;;10284484;23;20055;-80
2023/01/03 15:50:17;;;;;;;3.28;2.22;;;5.40;99.90;;;;;;10282923;23;20556;-80
2023/01/03 15:54:19;;;;;;;3.97;2.88;;;5.10;99.90;;;;;;10284388;23;19996;-81
2023/01/03 15:58:20;;;;;;;4.25;2.80;;;4.80;99.90;;;;;;10282782;23;20020;-81
2023/01/03 16:02:24;;;;;;;3.55;2.72;;;4.50;99.90;;;;;;10283800;23;20513;-80
2023/01/03 16:06:24;;;;;;;3.28;2.30;;;4.50;99.90;;;;;;10283676;23;20011;-80
2023/01/03 16:10:25;;;;;;;2.92;2.10;;;4.50;99.90;;;;;;10282112;23;20458;-81
2023/01/03 16:14:34;;;;;;;3.13;2.28;;;4.50;99.90;;;;;;10280180;23;20011;-80
2023/01/03 16:18:39;;;;;;;2.63;1.98;;;4.50;99.90;;;;;;10282893;23;20004;-81
2023/01/03 16:22:43;;;;;;;5.00;2.55;;;4.40;99.90;;;;;;10287373;23;20067;-81
2023/01/03 16:26:44;;;;;;;3.40;2.70;;;4.10;99.90;;;;;;10285756;23;20035;-81
2023/01/03 16:30:45;;;;;;;3.97;2.17;;;4.10;99.90;;;;;;10285768;23;20036;-80
2023/01/03 16:34:46;;;;;;;9.20;3.03;;;4.30;99.90;;;;;;10284392;23;20008;-81
2023/01/03 16:38:46;;;;;;;3.10;2.30;;;4.00;99.90;;;;;;10286860;23;20004;-81
2023/01/03 16:42:47;;;;;;;4.05;2.80;;;3.90;99.90;;;;;;10284264;23;20008;-80
2023/01/03 16:46:48;;;;;;;6.70;3.47;;;3.80;99.90;;;;;;10282544;23;20004;-81
2023/01/03 16:50:52;;;;;;;4.85;3.83;;;3.80;99.90;;;;;;10282469;23;20011;-81
2023/01/03 16:54:53;;;;;;;15.07;5.60;;;3.90;99.90;;;;;;10282708;23;20080;-80
2023/01/03 16:58:53;;;;;;;5.25;3.30;;;3.80;99.90;;;;;;10282370;23;20051;-81
2023/01/03 17:02:54;;;;;;;3.47;2.55;;;3.60;99.90;;;;;;10282784;23;20390;-80
2023/01/03 17:06:55;;;;;;;6.28;4.15;;;3.70;99.90;;;;;;10282797;23;20473;-81
2023/01/03 17:10:57;;;;;;;12.07;6.10;;;3.70;99.90;;;;;;10284307;23;20051;-80
2023/01/03 17:14:57;;;;;;;20.77;7.60;;;3.60;99.90;;;;;;10291912;23;20426;-81
2023/01/03 17:18:58;;;;;;;4.80;2.63;;;3.60;99.90;;;;;;10292592;23;20016;-81
2023/01/03 17:22:59;;;;;;;4.43;2.47;;;3.90;99.90;;;;;;10291899;23;20019;-81
2023/01/03 17:27:05;;;;;;;3.40;2.20;;;3.80;99.90;;;;;;10295588;23;20012;-81
2023/01/03 17:31:06;;;;;;;3.33;2.42;;;3.40;99.90;;;;;;10295782;23;20072;-81
2023/01/03 17:35:11;;;;;;;11.13;5.18;;;3.30;99.90;;;;;;10294532;23;20008;-81
2023/01/03 17:39:12;;;;;;;4.13;2.55;;;3.30;99.90;;;;;;10296397;23;20046;-81
2023/01/03 17:43:22;;;;;;;17.30;4.45;;;3.20;99.90;;;;;;10297823;23;20000;-81
2023/01/03 17:51:41;;;;;;;16.98;6.40;;;3.00;99.90;;;;;;10287862;23;20016;-89
2023/01/03 17:55:43;;;;;;;17.88;8.38;;;3.00;99.90;;;;;;10289339;23;20439;-89
2023/01/03 17:59:44;;;;;;;24.05;10.57;;;3.20;99.90;;;;;;10292189;23;20049;-80
2023/01/03 18:03:47;;;;;;;21.70;7.82;;;3.40;99.90;;;;;;10293168;23;20008;-80
2023/01/03 18:07:47;;;;;;;19.48;4.88;;;3.50;99.90;;;;;;10298677;23;20016;-81
2023/01/03 18:11:48;;;;;;;7.57;4.93;;;3.30;99.90;;;;;;10323064;22;20056;-79
2023/01/03 18:15:49;;;;;;;13.15;6.38;;;3.20;99.90;;;;;;10291409;23;20447;-79
2023/01/03 18:19:50;;;;;;;16.08;7.00;;;3.00;99.90;;;;;;10288763;23;20001;-79
2023/01/03 18:24:00;;;;;;;13.90;7.38;;;2.80;99.90;;;;;;10288122;23;20035;-79
2023/01/03 18:28:01;;;;;;;;;;;2.80;99.90;;;;;;10289141;23;20017;-79
2023/01/03 18:32:24;;;;;;;27.23;7.60;;;2.90;99.90;;;;;;10287172;23;19904;-79
2023/01/03 18:36:38;;;;;;;7.07;4.30;;;2.90;99.90;;;;;;10287530;23;20030;-80
2023/01/03 18:40:39;;;;;;;10.52;4.85;;;3.20;99.90;;;;;;10288273;23;20037;-79
2023/01/03 18:44:40;;;;;;;6.25;3.85;;;3.20;99.90;;;;;;10289747;23;20001;-79
2023/01/03 18:48:41;;;;;;;16.35;5.10;;;3.00;99.90;;;;;;10286524;23;20536;-79
2023/01/03 18:52:41;;;;;;;7.20;4.10;;;3.10;99.90;;;;;;10287880;23;20005;-79
2023/01/03 18:56:42;;;;;;;46.10;18.65;;;3.30;99.90;;;;;;10284849;23;20514;-79
2023/01/03 19:00:44;;;;;;;9.63;5.45;;;3.50;99.90;;;;;;10287480;23;20359;-79
2023/01/03 19:04:45;;;;;;;9.75;4.30;;;3.50;99.90;;;;;;10284827;23;20036;-80
2023/01/03 19:08:46;;;;;;;6.88;3.95;;;3.50;99.90;;;;;;10287201;23;20009;-80
2023/01/03 19:12:48;;;;;;;9.05;4.13;;;3.70;99.90;;;;;;10286926;23;20005;-80
2023/01/03 19:16:49;;;;;;;13.13;7.68;;;4.10;99.90;;;;;;10285989;23;20001;-80
2023/01/03 19:20:50;;;;;;;15.82;8.98;;;4.40;99.90;;;;;;10288770;23;20020;-80
2023/01/03 19:24:52;;;;;;;12.88;7.88;;;4.60;99.90;;;;;;10286151;23;20714;-80
2023/01/03 19:28:55;;;;;;;18.58;7.88;;;4.60;99.90;;;;;;10286382;23;20050;-80
2023/01/03 19:32:58;;;;;;;16.17;9.65;;;4.50;99.90;;;;;;10288431;23;20011;-80
2023/01/03 19:36:59;;;;;;;10.35;6.57;;;4.30;99.90;;;;;;10286876;23;20009;-79
2023/01/03 19:40:59;;;;;;;8.68;5.82;;;4.30;99.90;;;;;;10289795;23;20331;-80
2023/01/03 19:45:06;;;;;;;8.43;4.90;;;4.70;99.90;;;;;;10287204;23;20035;-80
2023/01/03 19:49:13;;;;;;;7.47;4.25;;;5.00;99.90;;;;;;10289249;23;20001;-80
2023/01/03 19:53:14;;;;;;;6.65;4.25;;;5.30;99.90;;;;;;10287339;23;20092;-80
2023/01/03 19:57:28;;;;;;;7.47;4.60;;;5.30;99.90;;;;;;10290805;23;20012;-81
2023/01/03 20:01:31;;;;;;;6.82;4.57;;;5.30;99.90;;;;;;10290704;23;20391;-80
2023/01/03 20:05:36;;;;;;;10.80;7.55;;;5.40;99.90;;;;;;10290320;23;20064;-80
2023/01/03 20:09:36;;;;;;;8.43;5.20;;;5.60;99.90;;;;;;10288560;23;20004;-81
2023/01/03 20:13:37;;;;;;;7.90;4.88;;;5.70;99.90;;;;;;10290242;23;20035;-80
2023/01/03 20:17:37;;;;;;;7.05;5.13;;;5.70;99.90;;;;;;10288635;23;20009;-80
2023/01/03 20:21:38;;;;;;;9.80;5.47;;;6.00;99.90;;;;;;10289816;23;20028;-80
2023/01/03 20:25:38;;;;;;;9.65;4.97;;;6.00;99.90;;;;;;10287035;23;20673;-80
2023/01/03 20:29:39;;;;;;;7.82;4.97;;;6.00;99.90;;;;;;10288208;23;20004;-80
2023/01/03 20:33:40;;;;;;;9.07;5.00;;;5.90;99.90;;;;;;10288926;23;20015;-79
2023/01/03 20:37:44;;;;;;;9.55;5.97;;;6.10;99.90;;;;;;10288287;23;20028;-80
2023/01/03 20:41:44;;;;;;;8.45;5.95;;;5.90;99.90;;;;;;10288934;23;20000;-80
2023/01/03 20:45:50;;;;;;;7.38;4.57;;;6.10;99.90;;;;;;10286751;23;20008;-80
2023/01/03 20:49:51;;;;;;;13.55;9.02;;;5.90;99.90;;;;;;10287399;23;20008;-80
2023/01/03 20:53:52;;;;;;;10.23;6.50;;;6.00;99.90;;;;;;10288829;23;20009;-80
2023/01/03 20:57:53;;;;;;;10.90;6.97;;;5.90;99.90;;;;;;10288816;23;20011;-80
2023/01/03 21:01:53;;;;;;;10.00;5.50;;;5.90;99.90;;;;;;10286836;23;20324;-80
2023/01/03 21:05:55;;;;;;;9.30;4.45;;;6.00;99.90;;;;;;10294515;22;20004;-80
2023/01/03 21:09:55;;;;;;;10.13;6.15;;;6.10;99.90;;;;;;10290631;23;20347;-79
2023/01/03 21:13:58;;;;;;;8.75;5.07;;;6.10;99.90;;;;;;10284226;23;20015;-79
2023/01/03 21:17:58;;;;;;;9.88;5.45;;;6.10;99.90;;;;;;10280996;23;20418;-79
2023/01/03 21:21:59;;;;;;;7.95;4.88;;;6.00;99.90;;;;;;10281198;23;20016;-78
2023/01/03 21:25:59;;;;;;;8.57;5.10;;;6.00;99.90;;;;;;10281618;23;20008;-79
2023/01/03 21:30:00;;;;;;;7.05;4.30;;;6.00;99.90;;;;;;10280208;23;20017;-78
2023/01/03 21:34:03;;;;;;;8.85;4.53;;;6.00;99.90;;;;;;10281707;23;19997;-79
2023/01/03 21:38:04;;;;;;;7.18;4.13;;;5.90;99.90;;;;;;10280110;23;20421;-78
2023/01/03 21:46:24;;;;;;;5.68;3.50;;;6.00;99.90;;;;;;10283327;23;20826;-78
2023/01/03 21:50:26;;;;;;;7.75;4.13;;;6.20;99.90;;;;;;10283206;23;20009;-80
2023/01/03 21:54:26;;;;;;;8.52;4.53;;;6.20;99.90;;;;;;10281764;23;20005;-80
2023/01/03 21:58:27;;;;;;;6.43;3.75;;;6.20;99.90;;;;;;10281499;23;20095;-79
2023/01/03 22:06:46;;;;;;;8.25;4.22;;;6.20;99.90;;;;;;10282945;23;20505;-79
2023/01/03 22:10:47;;;;;;;6.93;4.00;;;6.20;99.90;;;;;;10283313;23;20005;-79
2023/01/03 22:14:48;;;;;;;7.35;4.28;;;6.20;99.90;;;;;;10284431;23;20063;-79
2023/01/03 22:18:48;;;;;;;6.85;4.07;;;6.20;99.90;;;;;;10283752;23;20016;-79
2023/01/03 22:22:50;;;;;;;6.35;3.88;;;6.10;99.90;;;;;;10284469;23;20004;-80
2023/01/03 22:26:50;;;;;;;8.32;4.50;;;5.90;99.90;;;;;;10284862;23;20056;-79
2023/01/03 22:30:51;;;;;;;7.63;4.35;;;5.90;99.90;;;;;;10285579;23;20325;-80
2023/01/03 22:34:51;;;;;;;8.27;4.28;;;5.90;99.90;;;;;;10284315;23;20016;-79